Time;durP1;ratioP1;P1;durP2;ratioP2;P2;SDS_P1;SDS_P2;PMS_P1;PMS_P2;Temp;Humidity;BMP_temperature;BMP_pressure;BME280_temperature;BME280_humidity;BME280_pressure;Samples;Min_cycle;Max_cycle;Signal;HPM_P1;HPM_P2
2022/05/05 00:00:22;;;;;;;15.00;8.05;;;13.80;66.90;;;9.91;86.40;95695.78;5011664;28;20046;-49
2022/05/05 00:02:48;;;;;;;13.02;8.77;;;13.70;66.90;;;9.90;86.33;95702.19;5014075;28;20030;-49
2022/05/05 00:05:13;;;;;;;13.40;9.13;;;13.80;66.90;;;9.89;86.20;95697.09;5015882;28;20036;-48
2022/05/05 00:07:39;;;;;;;12.55;9.50;;;13.70;67.00;;;9.89;86.20;95694.44;5015849;28;20404;-47
2022/05/05 00:14:23;;;;;;;13.38;9.30;;;13.80;67.00;;;9.89;86.03;95699.75;5015751;28;20091;-48
2022/05/05 00:15:35;;;;;;;11.98;9.38;;;13.80;67.10;;;9.86;87.69;95700.25;5015666;28;20052;-48
2022/05/05 00:18:04;;;;;;;17.70;10.23;;;13.80;67.20;;;9.87;87.65;95699.19;5014326;28;20033;-48
2022/05/05 00:20:31;;;;;;;12.43;9.68;;;13.80;67.30;;;9.88;87.22;95698.97;5015513;28;20554;-48
2022/05/05 00:23:02;;;;;;;16.08;9.60;;;13.80;67.40;;;9.89;87.57;95692.56;5015648;28;20045;-48
2022/05/05 00:25:28;;;;;;;13.77;9.65;;;13.80;67.60;;;9.90;87.58;95696.03;5020369;28;20501;-48
2022/05/05 00:27:53;;;;;;;13.38;9.15;;;13.70;67.50;;;9.91;87.55;95695.78;5015455;28;20076;-48
2022/05/05 00:30:25;;;;;;;11.15;9.13;;;13.70;67.70;;;9.92;87.77;95697.38;5015249;28;20030;-50
2022/05/05 00:32:51;;;;;;;12.32;9.15;;;13.80;67.90;;;9.95;87.73;95685.41;5015405;28;20044;-51
2022/05/05 00:35:16;;;;;;;9.50;8.10;;;13.80;68.00;;;9.98;87.61;95684.91;5015339;28;20485;-48
2022/05/05 00:37:42;;;;;;;13.30;9.10;;;13.80;68.10;;;10.00;87.65;95688.13;5015400;28;20030;-52
2022/05/05 00:40:09;;;;;;;11.75;8.35;;;13.80;68.10;;;10.02;87.86;95682.53;5015117;28;20025;-50
2022/05/05 00:42:43;;;;;;;12.52;8.48;;;13.80;68.10;;;10.00;87.65;95682.81;5015280;28;20026;-52
2022/05/05 00:45:12;;;;;;;12.48;9.20;;;13.80;68.10;;;10.02;87.64;95679.88;4997521;28;20094;-48
2022/05/05 00:48:12;;;;;;;13.35;10.02;;;13.80;68.00;;;10.00;87.53;95674.81;5015039;28;20496;-53
2022/05/05 00:50:44;;;;;;;12.25;10.02;;;13.90;68.20;;;9.97;87.98;95672.69;5014997;28;20394;-50
2022/05/05 00:53:10;;;;;;;15.23;10.77;;;13.80;68.10;;;9.96;87.67;95668.38;5014766;28;20037;-50
2022/05/05 00:55:42;;;;;;;13.80;10.27;;;13.80;68.00;;;9.94;87.79;95673.97;5013613;28;20033;-50
2022/05/05 00:58:09;;;;;;;14.25;10.20;;;13.80;68.30;;;9.89;88.09;95668.63;5010430;28;20018;-50
2022/05/05 01:00:35;;;;;;;14.63;10.20;;;13.80;68.20;;;9.92;87.84;95667.31;5004781;28;20133;-50
2022/05/05 01:03:01;;;;;;;16.67;10.65;;;13.80;68.30;;;9.92;87.61;95678.75;5014416;28;20095;-48
2022/05/05 01:05:28;;;;;;;17.40;11.65;;;13.80;68.30;;;9.94;87.63;95675.84;5013528;28;20061;-48
2022/05/05 01:07:58;;;;;;;16.30;10.10;;;13.80;68.30;;;9.93;87.60;95676.88;4997135;28;20026;-50
2022/05/05 01:10:25;;;;;;;15.93;10.85;;;13.80;68.40;;;9.93;87.64;95677.72;5013352;28;20040;-51
2022/05/05 01:12:51;;;;;;;16.33;10.95;;;13.80;68.30;;;9.93;87.74;95679.53;5013855;28;20026;-52
2022/05/05 01:15:18;;;;;;;13.55;10.68;;;13.80;68.30;;;9.94;87.59;95683.84;5014317;28;20164;-49
2022/05/05 01:17:44;;;;;;;14.13;10.77;;;13.90;68.40;;;9.95;87.94;95691.53;4997044;28;20030;-52
2022/05/05 01:20:19;;;;;;;12.73;9.93;;;13.90;68.50;;;9.95;87.90;95690.75;5014499;28;20084;-51
2022/05/05 01:22:46;;;;;;;13.98;10.70;;;13.90;68.70;;;9.96;88.17;95689.69;5013277;28;20025;-54
2022/05/05 01:28:10;;;;;;;12.05;10.07;;;13.90;68.60;;;10.00;88.29;95687.28;5013745;28;20506;-48
2022/05/05 01:30:42;;;;;;;15.20;10.70;;;13.90;68.70;;;10.02;87.99;95693.97;5014260;28;20042;-48
2022/05/05 01:33:19;;;;;;;13.68;10.63;;;13.90;68.70;;;10.03;88.05;95692.94;5009702;28;20030;-48
2022/05/05 01:35:47;;;;;;;15.52;10.48;;;13.90;68.90;;;10.01;88.46;95697.69;5013615;28;20032;-48
2022/05/05 01:38:16;;;;;;;15.68;10.98;;;14.00;68.80;;;10.02;88.38;95696.63;5014212;28;20030;-47
2022/05/05 01:40:48;;;;;;;15.02;10.30;;;13.90;68.80;;;10.02;88.67;95696.63;5012841;28;20030;-49
2022/05/05 01:43:19;;;;;;;15.07;10.17;;;13.90;69.00;;;10.03;88.42;95705.41;5012844;28;20034;-48
2022/05/05 01:45:48;;;;;;;13.35;10.80;;;13.90;69.10;;;10.04;88.67;95705.16;5013225;28;20038;-47
2022/05/05 01:48:14;;;;;;;14.00;9.73;;;14.00;69.30;;;10.07;88.57;95703.84;5013165;28;20026;-49
2022/05/05 01:50:40;;;;;;;13.68;10.10;;;14.00;69.50;;;10.09;88.50;95705.22;5012472;28;20036;-50
2022/05/05 01:53:07;;;;;;;12.63;9.80;;;14.00;69.40;;;10.11;88.10;95699.63;5012512;28;20134;-47
2022/05/05 01:55:35;;;;;;;12.10;9.68;;;14.00;69.40;;;10.11;88.21;95703.06;5012530;28;20433;-49
2022/05/05 01:58:13;;;;;;;12.18;10.10;;;14.00;69.40;;;10.11;87.91;95712.91;5013336;28;20646;-50
2022/05/05 02:00:51;;;;;;;15.73;10.35;;;14.00;69.40;;;10.10;88.08;95711.31;5014002;28;20053;-50
2022/05/05 02:03:18;;;;;;;14.40;10.57;;;14.00;69.30;;;10.12;87.96;95717.19;5013741;28;20104;-49
2022/05/05 02:05:45;;;;;;;12.10;9.68;;;14.00;69.20;;;10.10;87.76;95706.00;5013686;28;20026;-49
2022/05/05 02:08:12;;;;;;;12.93;9.98;;;14.00;69.10;;;10.09;87.81;95705.22;4995979;28;20022;-52
2022/05/05 02:10:38;;;;;;;14.95;10.45;;;14.00;69.10;;;10.09;87.73;95699.88;5012061;28;20500;-51
2022/05/05 02:13:06;;;;;;;13.70;10.50;;;14.00;69.00;;;10.08;87.81;95710.78;5012092;28;20029;-48
2022/05/05 02:15:34;;;;;;;14.07;10.85;;;14.00;69.00;;;10.07;87.79;95707.31;4996001;28;20029;-52
2022/05/05 02:18:12;;;;;;;12.25;10.52;;;14.00;69.00;;;10.06;87.91;95705.72;4979775;28;20026;-53
2022/05/05 02:20:40;;;;;;;13.63;10.10;;;14.00;69.20;;;10.02;87.78;95701.16;5012218;28;20081;-54
2022/05/05 02:23:07;;;;;;;15.20;11.52;;;14.00;69.00;;;10.02;88.06;95701.97;5012081;28;20033;-51
2022/05/05 02:25:39;;;;;;;17.77;11.93;;;14.00;69.10;;;10.03;87.91;95702.75;5012515;28;20053;-49
2022/05/05 02:28:08;;;;;;;17.33;11.77;;;14.00;69.20;;;10.01;88.03;95697.69;5013338;28;20362;-53
2022/05/05 02:30:34;;;;;;;14.15;10.65;;;14.00;69.20;;;9.99;88.13;95696.34;5012985;28;20477;-51
2022/05/05 02:33:02;;;;;;;15.10;10.25;;;14.00;69.10;;;9.99;88.00;95701.66;5011792;28;20092;-48
2022/05/05 02:35:31;;;;;;;14.95;10.65;;;13.90;69.00;;;9.98;87.75;95705.41;5013022;28;20026;-54
2022/05/05 02:40:47;;;;;;;18.90;12.35;;;13.90;69.20;;;9.90;88.35;95696.03;5013104;28;20081;-51
2022/05/05 02:43:16;;;;;;;16.00;11.63;;;13.90;69.20;;;9.90;88.33;95698.69;4995439;28;20097;-55
2022/05/05 02:45:41;;;;;;;16.63;11.65;;;13.90;69.30;;;9.90;88.01;95698.69;5012984;28;20408;-48
2022/05/05 02:48:08;;;;;;;19.42;12.55;;;13.90;69.20;;;9.87;88.64;95693.88;5013131;28;20033;-52
2022/05/05 02:50:42;;;;;;;20.80;13.23;;;13.80;69.30;;;9.87;88.59;95689.38;5012853;28;20033;-51
2022/05/05 02:55:55;;;;;;;19.77;13.07;;;13.80;69.50;;;9.83;88.42;95685.63;5012969;28;20084;-49
2022/05/05 02:58:27;;;;;;;18.67;13.38;;;13.80;69.40;;;9.83;88.22;95685.63;5011442;28;20022;-51
2022/05/05 03:00:56;;;;;;;21.10;13.60;;;13.80;69.60;;;9.80;88.05;95685.31;5012261;28;20501;-51
2022/05/05 03:03:21;;;;;;;19.83;12.75;;;13.70;69.50;;;9.78;87.99;95679.47;5012415;28;20030;-52
2022/05/05 03:05:47;;;;;;;18.35;12.85;;;13.80;69.50;;;9.75;88.13;95691.44;5012827;28;20113;-53
2022/05/05 03:08:13;;;;;;;18.65;13.40;;;13.70;69.50;;;9.76;88.41;95681.59;5012671;28;20424;-50
2022/05/05 03:10:39;;;;;;;21.50;14.10;;;13.70;69.60;;;9.74;89.30;95679.16;5012636;28;20493;-51
2022/05/05 03:13:05;;;;;;;19.48;13.18;;;13.70;69.70;;;9.76;89.02;95679.72;5012464;28;20065;-50
2022/05/05 03:18:20;;;;;;;22.02;14.48;;;13.70;69.90;;;9.72;89.15;95673.31;5012468;28;20113;-50
2022/05/05 03:20:45;;;;;;;19.88;13.63;;;13.70;69.80;;;9.70;88.94;95673.56;5011368;28;20105;-50
2022/05/05 03:23:11;;;;;;;19.33;12.95;;;13.70;70.60;;;9.70;88.55;95678.09;5012758;28;20109;-51
2022/05/05 03:25:37;;;;;;;20.52;13.18;;;13.60;69.80;;;9.67;88.68;95676.75;5011721;28;20061;-50
2022/05/05 03:28:13;;;;;;;19.00;13.65;;;13.60;69.80;;;9.66;88.70;95677.81;5011311;28;20030;-50
2022/05/05 03:30:42;;;;;;;21.83;13.60;;;13.60;70.00;;;9.64;88.54;95679.13;4995010;28;20384;-50
2022/05/05 03:33:10;;;;;;;20.88;13.07;;;13.60;69.90;;;9.61;88.90;95680.41;5012523;28;20026;-50
2022/05/05 03:35:36;;;;;;;21.80;13.68;;;13.60;70.00;;;9.57;88.74;95673.22;5011485;28;20112;-53
2022/05/05 03:38:10;;;;;;;21.10;13.73;;;13.60;69.90;;;9.54;88.84;95663.88;5015328;28;20454;-50
2022/05/05 03:40:41;;;;;;;22.42;13.75;;;13.60;70.10;;;9.59;88.96;95673.75;5015302;28;20057;-47
2022/05/05 03:43:18;;;;;;;21.92;13.98;;;13.50;70.00;;;9.56;88.98;95669.75;5015346;28;20026;-51
2022/05/05 03:45:47;;;;;;;20.90;13.38;;;13.50;70.10;;;9.54;89.02;95671.88;5014891;28;20029;-51
2022/05/05 03:48:13;;;;;;;20.10;13.73;;;13.50;70.10;;;9.54;88.81;95676.38;5015865;28;20101;-50
2022/05/05 03:50:42;;;;;;;22.90;14.45;;;13.50;70.10;;;9.51;89.35;95677.69;5016220;28;20114;-50
2022/05/05 03:53:10;;;;;;;20.17;13.27;;;13.50;70.30;;;9.51;89.06;95672.38;5013749;28;20036;-52
2022/05/05 03:55:42;;;;;;;19.95;13.65;;;13.50;70.30;;;9.52;89.21;95673.97;5006114;28;20456;-50
2022/05/05 03:58:08;;;;;;;20.80;13.23;;;13.50;70.50;;;9.51;89.19;95675.03;5015827;28;20026;-49
2022/05/05 04:00:42;;;;;;;20.60;13.80;;;13.50;70.30;;;9.51;89.01;95675.03;5031051;28;20050;-50
2022/05/05 04:03:32;;;;;;;23.27;13.73;;;13.50;70.40;;;9.48;89.25;95675.53;5031365;28;20037;-51
2022/05/05 04:06:08;;;;;;;21.83;12.90;;;13.50;70.50;;;9.48;89.01;95679.00;5014988;28;20118;-51
2022/05/05 04:08:36;;;;;;;20.83;13.27;;;13.50;70.40;;;9.39;89.12;95664.56;5016121;28;20036;-53
2022/05/05 04:11:04;;;;;;;21.40;13.85;;;13.50;70.40;;;9.49;89.15;95685.13;5014608;28;20037;-50
2022/05/05 04:13:34;;;;;;;20.27;13.30;;;13.50;70.40;;;9.48;88.95;95694.94;5015861;28;20037;-50
2022/05/05 04:16:03;;;;;;;19.70;13.10;;;13.50;70.50;;;9.48;89.04;95692.28;5014643;28;20026;-52
2022/05/05 04:18:38;;;;;;;19.17;12.95;;;13.50;70.50;;;9.48;88.96;95689.63;5015887;28;20215;-49
2022/05/05 04:21:04;;;;;;;19.55;12.93;;;13.50;70.60;;;9.47;88.93;95696.03;5015390;28;20053;-51
2022/05/05 04:23:30;;;;;;;18.40;12.32;;;13.50;70.40;;;9.47;88.93;95697.88;5014460;28;20074;-49
2022/05/05 04:25:59;;;;;;;18.55;12.50;;;13.50;70.40;;;9.50;88.91;95702.69;5015472;28;20405;-50
2022/05/05 04:28:25;;;;;;;19.73;12.65;;;13.60;70.40;;;9.52;88.93;95705.09;5014363;28;20077;-47
2022/05/05 04:30:51;;;;;;;17.23;12.30;;;13.60;70.40;;;9.56;88.91;95700.84;5015415;28;20496;-50
2022/05/05 04:33:20;;;;;;;20.63;13.18;;;13.70;70.40;;;9.58;89.03;95701.41;5010869;28;20034;-49
2022/05/05 04:35:52;;;;;;;18.58;12.68;;;13.80;70.60;;;9.62;89.19;95702.50;5014551;28;20026;-50
2022/05/05 04:38:23;;;;;;;17.95;12.32;;;13.80;70.60;;;9.65;89.46;95705.47;5015322;28;20053;-48
2022/05/05 04:40:49;;;;;;;19.15;12.68;;;13.80;70.50;;;9.70;89.46;95707.34;5015312;28;20037;-52
2022/05/05 04:43:18;;;;;;;19.00;12.63;;;13.80;70.50;;;9.74;89.64;95708.44;5015176;28;20470;-48
2022/05/05 04:45:44;;;;;;;16.83;11.43;;;13.90;70.70;;;9.79;89.32;95697.03;5013927;28;20481;-53
2022/05/05 04:48:13;;;;;;;14.93;11.43;;;13.90;70.60;;;9.82;89.16;95710.63;5014368;28;20079;-50
2022/05/05 04:50:38;;;;;;;16.95;12.52;;;13.90;70.60;;;9.86;89.19;95708.25;5015043;28;20029;-48
2022/05/05 04:53:09;;;;;;;16.52;12.07;;;14.00;70.60;;;9.85;89.16;95715.44;5013734;28;20076;-48
2022/05/05 04:55:38;;;;;;;17.20;11.52;;;14.00;70.70;;;9.89;89.29;95721.03;5013742;28;20030;-54
2022/05/05 04:58:10;;;;;;;15.20;11.35;;;14.00;70.70;;;9.92;89.34;95715.22;5013694;28;20026;-53
2022/05/05 05:00:44;;;;;;;15.80;11.57;;;14.10;70.70;;;9.85;89.21;95698.69;5005067;28;20149;-55
2022/05/05 05:03:32;;;;;;;18.30;10.90;;;14.10;70.70;;;9.95;89.06;95720.81;5012410;28;20030;-51
2022/05/05 05:06:09;;;;;;;15.00;10.52;;;14.10;70.50;;;9.97;88.95;95717.91;5014945;28;20734;-48
2022/05/05 05:08:39;;;;;;;16.38;11.48;;;14.10;70.60;;;9.99;89.18;95725.63;5013797;28;20113;-48
2022/05/05 05:11:11;;;;;;;16.00;11.05;;;14.10;70.50;;;9.91;88.90;95709.09;5013431;28;20116;-49
2022/05/05 05:13:36;;;;;;;14.20;11.10;;;14.10;70.60;;;10.02;89.15;95719.78;5013535;28;20397;-53
2022/05/05 05:16:02;;;;;;;14.80;10.95;;;14.10;70.50;;;10.03;89.05;95713.41;5013255;28;20030;-54
2022/05/05 05:18:36;;;;;;;16.45;10.85;;;14.10;70.40;;;10.03;89.00;95710.72;5013535;28;20481;-54
2022/05/05 05:21:02;;;;;;;14.65;10.98;;;14.10;70.40;;;10.02;89.18;95707.28;5009994;28;20030;-54
2022/05/05 05:23:28;;;;;;;16.77;11.35;;;14.10;70.40;;;10.05;89.13;95705.97;4964200;28;20095;-50
2022/05/05 05:25:54;;;;;;;18.42;11.98;;;14.10;70.40;;;10.07;89.07;95709.97;5024332;28;20498;-50
2022/05/05 05:28:19;;;;;;;18.58;11.23;;;14.20;70.50;;;10.06;89.10;95707.56;5025310;28;20029;-48
2022/05/05 05:30:45;;;;;;;16.33;11.20;;;14.20;70.50;;;10.09;89.18;95712.38;5010126;28;20026;-54
2022/05/05 05:33:11;;;;;;;16.55;11.18;;;14.20;70.50;;;10.11;89.08;95711.06;5013768;28;20038;-52
2022/05/05 05:35:37;;;;;;;15.63;10.95;;;14.20;70.50;;;10.13;88.83;95710.81;5014218;28;20028;-50
2022/05/05 05:38:03;;;;;;;15.63;10.60;;;14.30;70.50;;;10.15;88.82;95704.19;5012875;28;20029;-49
2022/05/05 05:40:29;;;;;;;15.88;10.43;;;14.30;70.50;;;10.20;89.03;95704.19;5012798;28;20061;-52
2022/05/05 05:42:58;;;;;;;14.07;10.77;;;14.40;70.50;;;10.25;88.92;95708.75;5013942;28;20068;-49
2022/05/05 05:45:24;;;;;;;15.05;11.40;;;14.50;70.60;;;10.31;88.90;95710.41;5013021;28;20437;-50
2022/05/05 05:47:53;;;;;;;16.33;10.82;;;14.50;70.40;;;10.36;89.00;95715.75;5013881;28;20404;-52
2022/05/05 05:50:22;;;;;;;14.93;10.57;;;14.60;70.50;;;10.41;88.93;95715.78;5013772;28;20052;-51
2022/05/05 05:52:50;;;;;;;14.25;11.05;;;14.60;70.40;;;10.47;88.97;95721.94;5012565;28;20038;-51
2022/05/05 05:55:18;;;;;;;12.30;10.45;;;14.70;70.40;;;10.52;88.91;95719.25;5012258;28;20033;-50
2022/05/05 05:57:43;;;;;;;15.23;11.23;;;14.80;70.40;;;10.58;88.77;95720.09;4996329;28;20077;-50
2022/05/05 06:00:10;;;;;;;13.52;10.98;;;14.80;70.30;;;10.63;88.81;95720.91;5012189;28;20065;-50
2022/05/05 06:05:32;;;;;;;16.10;9.70;;;15.00;70.30;;;10.75;88.53;95731.34;5004569;28;20084;-50
2022/05/05 06:07:59;;;;;;;12.50;9.52;;;15.00;70.00;;;10.77;88.21;95731.88;5012330;28;20030;-54
2022/05/05 06:10:32;;;;;;;16.48;10.02;;;15.10;69.90;;;10.82;88.19;95742.56;5012421;28;20032;-53
2022/05/05 06:13:01;;;;;;;11.55;8.88;;;15.20;70.00;;;10.88;87.97;95741.50;5013586;28;20036;-50
2022/05/05 06:15:33;;;;;;;10.40;8.68;;;15.20;69.80;;;10.86;87.01;95748.97;5028781;28;20313;-48
2022/05/05 06:17:58;;;;;;;12.43;8.30;;;15.30;69.70;;;10.88;87.37;95749.50;5013483;28;20057;-49
2022/05/05 06:20:27;;;;;;;12.52;9.35;;;15.30;69.50;;;10.93;87.53;95758.56;5013182;28;20448;-52
2022/05/05 06:22:55;;;;;;;11.07;9.23;;;15.30;69.40;;;10.98;87.32;95751.41;5013790;28;20049;-49
2022/05/05 06:25:24;;;;;;;18.33;13.80;;;15.30;69.20;;;11.04;87.23;95750.34;5013242;28;20030;-50
2022/05/05 06:27:56;;;;;;;12.27;9.73;;;15.40;69.30;;;11.11;86.84;95756.22;5012077;28;20061;-50
2022/05/05 06:30:22;;;;;;;12.35;9.75;;;15.40;69.30;;;11.16;86.40;95755.44;5011809;28;20045;-50
2022/05/05 06:32:48;;;;;;;11.13;9.00;;;15.50;69.10;;;11.18;86.12;95755.97;5011326;28;20034;-49
2022/05/05 06:35:14;;;;;;;11.68;10.13;;;15.50;69.00;;;11.20;85.72;95759.19;5011691;28;20576;-50
2022/05/05 06:37:42;;;;;;;10.05;8.63;;;15.50;68.80;;;11.23;85.21;95768.53;5012997;28;20129;-47
2022/05/05 06:40:09;;;;;;;11.70;8.80;;;15.60;68.70;;;11.25;84.80;95774.38;5012810;28;20030;-51
2022/05/05 06:42:37;;;;;;;9.60;8.50;;;15.60;68.50;;;11.23;84.52;95774.66;4995189;28;20021;-48
2022/05/05 06:45:05;;;;;;;12.85;8.55;;;15.70;68.40;;;11.30;84.96;95780.53;5011478;28;20040;-50
2022/05/05 06:47:34;;;;;;;10.57;8.57;;;15.70;68.20;;;11.35;84.70;95779.75;5013317;28;20087;-49
2022/05/05 06:50:03;;;;;;;11.27;9.35;;;15.80;68.10;;;11.42;85.18;95780.28;5012751;28;20080;-52
2022/05/05 06:52:29;;;;;;;11.90;8.77;;;15.80;68.10;;;11.48;84.77;95775.78;5013144;28;20029;-50
2022/05/05 06:55:12;;;;;;;10.65;8.43;;;15.90;68.00;;;11.52;84.81;95768.81;5011386;28;20511;-47
2022/05/05 06:57:38;;;;;;;9.82;8.40;;;16.00;68.00;;;11.55;84.25;95765.63;5012867;28;20030;-48
2022/05/05 07:00:05;;;;;;;10.95;8.25;;;16.00;67.70;;;11.61;84.66;95764.56;5027103;28;20068;-47
2022/05/05 07:02:37;;;;;;;10.13;8.35;;;16.10;67.60;;;11.63;84.24;95762.44;5011503;28;20093;-47
2022/05/05 07:05:23;;;;;;;10.20;7.60;;;16.20;67.50;;;11.64;83.24;95768.56;5012622;28;20084;-48
2022/05/05 07:07:50;;;;;;;9.35;7.95;;;16.30;67.20;;;11.73;83.29;95774.97;5012648;28;20034;-48
2022/05/05 07:13:13;;;;;;;16.60;11.82;;;16.40;66.90;;;11.84;83.48;95770.44;5011884;28;20543;-48
2022/05/05 07:15:40;;;;;;;14.45;11.00;;;16.50;66.60;;;11.89;83.30;95776.59;5012595;28;20057;-47
2022/05/05 07:18:09;;;;;;;12.05;10.43;;;16.70;66.50;;;11.98;83.25;95776.88;5011169;28;20026;-49
2022/05/05 07:20:35;;;;;;;12.82;9.75;;;16.80;66.30;;;12.10;83.37;95771.25;5011044;28;20120;-47
2022/05/05 07:23:01;;;;;;;14.75;11.02;;;16.90;66.20;;;12.15;82.46;95781.91;5011074;28;20026;-48
2022/05/05 07:25:27;;;;;;;13.80;10.70;;;17.00;66.00;;;12.22;82.15;95780.59;5012411;28;20061;-49
2022/05/05 07:27:53;;;;;;;11.48;8.98;;;17.10;65.70;;;12.18;80.83;95787.53;5027918;28;20042;-51
2022/05/05 07:30:23;;;;;;;11.73;8.48;;;17.10;65.30;;;12.18;80.07;95784.84;5012585;28;20033;-51
2022/05/05 07:32:52;;;;;;;10.18;8.45;;;17.10;65.00;;;12.13;79.37;95784.88;5012328;28;20030;-47
2022/05/05 07:35:21;;;;;;;12.65;9.07;;;17.10;64.70;;;12.10;80.11;95780.06;5012240;28;20034;-53
2022/05/05 07:37:49;;;;;;;10.55;9.32;;;17.10;64.60;;;12.19;80.76;95786.47;5011060;28;20026;-52
2022/05/05 07:40:20;;;;;;;11.68;9.07;;;17.10;64.60;;;12.21;80.56;95789.66;5012404;28;20037;-49
2022/05/05 07:42:49;;;;;;;14.50;9.30;;;17.00;64.50;;;12.23;79.38;95790.19;5011187;28;20054;-50
2022/05/05 07:45:21;;;;;;;10.75;9.02;;;17.00;64.40;;;12.25;80.06;95800.59;5012186;28;20109;-52
2022/05/05 07:47:50;;;;;;;12.02;9.15;;;17.00;64.50;;;12.26;79.92;95796.88;5010990;28;20030;-48
2022/05/05 07:50:21;;;;;;;10.07;8.40;;;16.90;64.40;;;12.24;79.78;95796.31;5012069;28;20484;-50
2022/05/05 07:52:53;;;;;;;10.88;8.40;;;16.90;64.30;;;12.25;79.47;95798.75;5012251;28;20030;-48
2022/05/05 07:55:22;;;;;;;11.85;9.32;;;16.90;64.30;;;12.27;79.68;95795.78;5012300;28;20042;-47
2022/05/05 07:57:53;;;;;;;11.27;8.73;;;16.80;64.20;;;12.22;79.77;95793.13;5012071;28;20052;-51
2022/05/05 08:00:22;;;;;;;10.60;8.18;;;16.80;64.20;;;12.18;79.28;95800.88;5011558;28;20037;-51
2022/05/05 08:02:50;;;;;;;11.63;9.07;;;16.80;64.10;;;12.08;79.74;95792.88;5046281;22;20041;-51
2022/05/05 08:05:21;;;;;;;11.00;9.13;;;16.80;64.10;;;12.20;79.73;95800.63;5045423;28;20086;-51
2022/05/05 08:07:49;;;;;;;10.45;9.30;;;16.80;64.20;;;12.23;80.39;95795.53;5023279;28;20071;-50
2022/05/05 08:10:20;;;;;;;12.00;9.27;;;16.80;64.30;;;12.26;80.43;95797.66;5029557;28;20029;-50
2022/05/05 08:12:47;;;;;;;10.43;9.32;;;16.90;64.40;;;12.32;80.36;95795.00;5042318;28;20032;-52
2022/05/05 08:15:16;;;;;;;9.98;8.90;;;16.90;64.40;;;12.41;81.18;95801.38;5041911;28;20034;-49
2022/05/05 08:17:43;;;;;;;11.45;9.05;;;17.00;64.50;;;12.45;80.94;95786.41;5040141;28;20056;-51
2022/05/05 08:20:12;;;;;;;10.70;9.52;;;17.10;64.50;;;12.53;80.51;95793.06;5021620;28;20442;-52
2022/05/05 08:22:38;;;;;;;10.93;8.80;;;17.20;64.40;;;12.64;78.61;95800.00;5041681;28;20026;-50
2022/05/05 08:30:43;;;;;;;10.15;9.00;;;17.70;63.70;;;13.04;79.69;95798.25;5034428;28;20522;-51
2022/05/05 08:33:12;;;;;;;11.52;9.63;;;18.00;63.50;;;13.14;79.54;95808.88;5032485;28;20033;-54
2022/05/05 08:35:44;;;;;;;10.98;9.30;;;18.10;63.20;;;13.31;79.43;95812.03;5054979;28;20492;-51
2022/05/05 08:38:13;;;;;;;11.02;9.05;;;18.40;63.00;;;13.46;79.17;95811.16;5054910;28;20025;-52
2022/05/05 08:40:41;;;;;;;11.05;9.07;;;18.50;62.50;;;13.40;76.59;95806.91;5054954;28;20083;-55
2022/05/05 08:43:07;;;;;;;9.77;8.40;;;18.70;62.00;;;13.54;78.84;95815.94;5037080;28;20028;-55
2022/05/05 08:45:34;;;;;;;10.13;8.40;;;18.90;61.80;;;13.59;76.97;95812.41;5044313;28;20400;-54
2022/05/05 08:48:12;;;;;;;9.98;8.70;;;19.00;61.50;;;13.58;76.14;95813.50;5036303;28;20026;-49
2022/05/05 08:50:44;;;;;;;11.18;9.32;;;19.00;61.00;;;13.60;76.45;95814.00;5033547;28;20032;-53
2022/05/05 08:53:15;;;;;;;11.18;8.50;;;19.00;61.50;;;13.75;76.80;95813.09;5033714;28;20060;-54
2022/05/05 08:55:45;;;;;;;10.77;9.43;;;19.00;60.60;;;13.81;77.02;95822.69;5033654;28;20033;-52
2022/05/05 08:58:14;;;;;;;10.60;8.82;;;19.00;60.70;;;13.85;76.93;95815.69;5053414;28;20031;-52
2022/05/05 09:00:41;;;;;;;12.80;8.07;;;19.00;60.70;;;13.88;75.77;95817.81;5039863;28;20100;-52
2022/05/05 09:03:09;;;;;;;9.35;8.45;;;19.00;60.50;;;13.87;75.67;95824.25;5054268;28;20580;-49
2022/05/05 09:05:44;;;;;;;9.25;7.65;;;19.00;60.30;;;13.90;74.12;95821.03;5054296;28;20040;-50
2022/05/05 09:08:24;;;;;;;11.82;9.00;;;19.00;59.80;;;13.92;74.98;95823.44;5054632;28;20029;-51
2022/05/05 09:11:01;;;;;;;11.73;8.57;;;19.00;59.80;;;13.93;75.43;95825.81;5054320;28;20036;-50
2022/05/05 09:13:30;;;;;;;12.75;9.65;;;19.10;59.90;;;14.02;76.83;95820.66;5046368;28;20065;-56
2022/05/05 09:15:57;;;;;;;9.90;8.88;;;19.30;60.00;;;14.24;77.36;95829.06;5044299;28;20534;-55
2022/05/05 09:18:32;;;;;;;8.73;7.82;;;19.50;60.00;;;14.34;74.36;95828.16;5035217;28;20504;-53
2022/05/05 09:21:06;;;;;;;8.57;7.60;;;19.70;59.40;;;14.44;73.45;95824.59;5042434;28;20037;-55
2022/05/05 09:26:30;;;;;;;9.57;8.15;;;20.20;58.90;;;14.69;74.72;95821.66;5034417;28;20072;-53
2022/05/05 09:29:27;;;;;;;9.20;8.25;;;20.50;58.60;;;14.86;74.50;95817.75;5017242;28;20447;-54
2022/05/05 09:31:59;;;;;;;7.93;7.18;;;20.70;58.60;;;14.97;71.97;95832.63;5032861;28;20029;-52
2022/05/05 09:34:24;;;;;;;9.68;7.25;;;20.90;57.60;;;15.12;71.35;95834.34;5033455;28;20029;-51
2022/05/05 09:36:50;;;;;;;9.57;6.72;;;21.10;57.30;;;15.27;71.47;95823.44;5032740;28;20107;-51
2022/05/05 09:39:16;;;;;;;11.20;7.32;;;21.20;56.90;;;15.22;72.53;95832.31;5033881;28;20100;-53
2022/05/05 09:41:46;;;;;;;8.20;7.40;;;21.20;56.80;;;15.35;72.70;95827.34;5034070;28;20130;-51
2022/05/05 09:44:21;;;;;;;7.25;6.25;;;21.20;56.80;;;15.38;70.62;95830.25;5032630;28;20116;-51
2022/05/05 09:46:48;;;;;;;7.10;6.40;;;21.20;56.50;;;15.38;69.66;95822.19;5032940;28;20048;-55
2022/05/05 09:49:17;;;;;;;7.93;7.22;;;21.10;56.20;;;15.34;69.66;95828.44;5048907;28;20503;-53
2022/05/05 09:57:41;;;;;;;6.63;5.88;;;21.00;56.10;;;15.23;69.86;95827.75;5033816;28;20108;-49
2022/05/05 10:05:52;;;;;;;7.63;6.93;;;21.10;56.10;;;15.32;73.10;95826.03;5033683;28;20032;-56
2022/05/05 10:08:38;;;;;;;8.50;7.05;;;21.10;56.20;;;15.34;70.30;95831.13;5043371;28;20510;-54
2022/05/05 10:11:09;;;;;;;6.70;6.10;;;21.10;55.70;;;15.40;69.71;95821.91;5052138;28;20514;-54
2022/05/05 10:13:42;;;;;;;7.07;6.43;;;21.20;55.60;;;15.39;71.14;95821.13;5048116;28;20033;-53
2022/05/05 10:16:09;;;;;;;6.95;6.07;;;21.30;55.40;;;15.46;69.66;95810.81;5035480;28;20025;-52
2022/05/05 10:18:44;;;;;;;8.48;7.03;;;21.30;55.10;;;15.59;70.71;95819.25;5032120;28;20537;-55
2022/05/05 10:21:59;;;;;;;6.72;6.07;;;21.40;55.30;;;15.57;69.54;95824.88;5033327;28;20029;-55
2022/05/05 10:24:34;;;;;;;6.43;5.78;;;21.40;55.00;;;15.59;68.63;95813.88;5033062;28;20128;-50
2022/05/05 10:27:12;;;;;;;5.50;4.80;;;21.30;55.00;;;15.53;66.91;95817.72;5032929;28;20083;-50
2022/05/05 10:29:42;;;;;;;5.82;5.28;;;21.30;54.40;;;15.59;67.23;95820.03;5031890;28;20120;-53
2022/05/05 10:32:25;;;;;;;5.20;4.70;;;21.20;54.40;;;15.68;65.78;95817.53;5032868;28;20408;-51
2022/05/05 10:35:12;;;;;;;5.50;4.93;;;21.30;54.30;;;15.73;64.04;95823.63;5031656;28;20095;-51
2022/05/05 10:37:39;;;;;;;5.25;4.75;;;21.20;53.80;;;15.63;66.04;95820.25;5040467;28;20049;-49
2022/05/05 10:40:10;;;;;;;6.18;5.18;;;21.10;53.90;;;15.62;66.33;95807.91;5051391;28;20130;-53
2022/05/05 10:42:45;;;;;;;6.57;5.88;;;21.10;53.90;;;15.61;66.42;95812.50;5042889;28;20507;-50
2022/05/05 10:45:32;;;;;;;6.45;5.50;;;21.10;54.00;;;15.61;66.44;95809.03;5033898;28;20040;-50
2022/05/05 10:48:10;;;;;;;6.72;5.80;;;21.10;53.80;;;15.69;66.50;95809.16;5034806;28;20037;-50
2022/05/05 10:50:54;;;;;;;6.38;5.78;;;21.20;53.70;;;15.72;68.59;95808.59;5043751;28;20431;-51
2022/05/05 10:53:40;;;;;;;6.05;5.55;;;21.30;53.90;;;15.80;67.74;95801.78;5061413;28;20029;-49
2022/05/05 10:56:31;;;;;;;7.47;5.95;;;21.40;53.80;;;15.84;66.21;95807.34;5031463;28;20032;-49
2022/05/05 10:59:13;;;;;;;6.60;6.00;;;21.50;53.50;;;15.81;66.68;95802.56;5040606;28;20479;-51
2022/05/05 11:01:42;;;;;;;6.97;5.70;;;21.50;53.40;;;15.79;67.21;95804.72;5032620;28;20220;-50
2022/05/05 11:04:24;;;;;;;7.22;5.93;;;21.50;53.30;;;15.71;66.18;95801.63;5044378;28;20399;-51